createdAt,value
2023-03-26T00:03:57.990Z,6.17
2023-03-26T00:09:01.933Z,2.77
2023-03-26T00:14:06.963Z,1.40
2023-03-26T00:19:11.025Z,1.13
2023-03-26T00:24:16.359Z,1.20
2023-03-26T00:29:21.013Z,1.37
2023-03-26T00:34:25.010Z,1.40
2023-03-26T00:39:29.346Z,1.10
2023-03-26T00:44:35.668Z,1.53
2023-03-26T00:49:39.458Z,1.43
2023-03-26T00:54:43.089Z,1.50
2023-03-26T00:59:47.730Z,1.70
2023-03-26T01:04:55.673Z,1.27
2023-03-26T01:09:59.974Z,1.20
2023-03-26T01:15:05.328Z,1.47
2023-03-26T01:20:13.618Z,1.20
2023-03-26T01:25:18.583Z,1.40
2023-03-26T01:30:24.819Z,1.63
2023-03-26T01:35:33.755Z,1.67
2023-03-26T01:40:43.671Z,1.33
2023-03-26T01:45:49.283Z,1.20
2023-03-26T01:50:56.555Z,1.47
2023-03-26T01:56:06.514Z,1.57
2023-03-26T02:01:14.697Z,1.40
2023-03-26T02:06:20.653Z,1.80
2023-03-26T02:11:34.810Z,1.57
2023-03-26T02:16:39.081Z,1.80
2023-03-26T02:21:42.875Z,1.80
2023-03-26T02:26:47.807Z,1.50
2023-03-26T02:31:51.260Z,1.43
2023-03-26T02:36:54.989Z,1.30
2023-03-26T02:42:00.173Z,2.10
2023-03-26T02:47:05.065Z,1.77
2023-03-26T02:52:11.606Z,1.30
2023-03-26T02:57:16.695Z,1.53
2023-03-26T03:02:54.579Z,1.50
2023-03-26T03:08:07.276Z,1.97
2023-03-26T03:13:15.439Z,1.23
2023-03-26T03:18:18.928Z,1.60
2023-03-26T03:23:22.497Z,1.77
2023-03-26T03:28:40.450Z,1.30
2023-03-26T03:33:44.072Z,1.90
2023-03-26T03:38:47.960Z,1.57
2023-03-26T03:43:58.999Z,1.80
2023-03-26T03:49:05.399Z,1.40
2023-03-26T03:54:12.633Z,1.80
2023-03-26T03:59:37.415Z,2.30
2023-03-26T04:04:46.553Z,1.90
2023-03-26T04:09:52.621Z,1.57
2023-03-26T04:15:00.585Z,1.60
2023-03-26T04:20:07.052Z,1.70
2023-03-26T04:25:10.765Z,2.00
2023-03-26T04:30:23.300Z,2.17
2023-03-26T04:35:37.588Z,1.70
2023-03-26T04:40:47.892Z,2.10
2023-03-26T04:46:11.234Z,1.40
2023-03-26T04:51:27.209Z,1.50
2023-03-26T04:56:37.751Z,1.40
2023-03-26T05:02:03.197Z,2.10
2023-03-26T05:07:12.726Z,2.63
2023-03-26T05:12:21.701Z,2.10
2023-03-26T05:17:34.826Z,1.57
2023-03-26T05:22:40.264Z,1.70
2023-03-26T05:27:51.791Z,1.70
2023-03-26T05:32:58.524Z,1.77
2023-03-26T05:38:07.275Z,1.57
2023-03-26T05:43:10.855Z,1.70
2023-03-26T05:48:24.781Z,1.10
2023-03-26T05:53:29.072Z,1.70
2023-03-26T05:58:52.118Z,1.50
2023-03-26T06:04:34.476Z,2.03
2023-03-26T06:09:56.433Z,1.60
2023-03-26T06:15:00.255Z,1.80
2023-03-26T06:20:25.339Z,1.37
2023-03-26T06:25:32.594Z,1.87
2023-03-26T06:30:43.961Z,1.83
2023-03-26T06:36:07.397Z,2.63
2023-03-26T06:41:11.112Z,1.97
2023-03-26T06:46:14.597Z,1.60
2023-03-26T06:51:46.744Z,2.37
2023-03-26T06:57:03.298Z,2.23
2023-03-26T07:02:07.050Z,1.83
2023-03-26T07:07:30.214Z,1.77
2023-03-26T07:12:59.862Z,2.80
2023-03-26T07:18:52.759Z,3.00
2023-03-26T07:24:00.830Z,2.07
2023-03-26T07:29:36.084Z,3.20
2023-03-26T07:34:48.059Z,2.40
2023-03-26T07:40:18.294Z,2.50
2023-03-26T07:45:41.252Z,2.37
2023-03-26T07:51:03.760Z,1.73
2023-03-26T07:56:30.558Z,2.07
2023-03-26T08:02:22.545Z,3.00
2023-03-26T08:07:45.488Z,2.73
2023-03-26T08:13:04.303Z,2.10
2023-03-26T08:18:16.179Z,2.30
2023-03-26T08:23:24.406Z,1.80
2023-03-26T08:28:37.980Z,2.23
2023-03-26T08:33:42.040Z,2.60
2023-03-26T08:38:46.894Z,2.13
2023-03-26T08:44:04.717Z,2.50
2023-03-26T08:49:32.049Z,1.90
2023-03-26T08:54:56.858Z,3.03
2023-03-26T09:00:18.769Z,3.13
2023-03-26T09:05:38.896Z,3.67
2023-03-26T09:11:03.574Z,3.23
2023-03-26T09:16:27.575Z,2.93
2023-03-26T09:21:53.953Z,4.57
2023-03-26T09:27:36.439Z,2.20
2023-03-26T09:33:03.491Z,2.20
2023-03-26T09:38:15.742Z,1.90
2023-03-26T09:43:37.022Z,2.00
2023-03-26T09:49:13.263Z,1.80
2023-03-26T09:54:26.813Z,1.50
2023-03-26T10:00:10.370Z,2.07
2023-03-26T10:05:26.037Z,2.03
2023-03-26T10:10:41.325Z,2.00
2023-03-26T10:15:57.346Z,2.10
2023-03-26T10:21:05.653Z,2.30
2023-03-26T10:26:27.512Z,2.20
2023-03-26T10:31:38.091Z,1.90
2023-03-26T10:36:58.174Z,1.50
2023-03-26T10:42:10.471Z,1.70
2023-03-26T10:47:31.202Z,1.97
2023-03-26T10:52:41.372Z,1.50
2023-03-26T10:57:47.180Z,2.10
2023-03-26T11:02:58.133Z,1.67
2023-03-26T11:08:05.566Z,1.50
2023-03-26T11:13:14.110Z,1.30
2023-03-26T11:18:26.062Z,1.60
2023-03-26T11:23:37.070Z,1.13
2023-03-26T11:29:03.760Z,0.90
2023-03-26T11:34:21.635Z,1.00
2023-03-26T11:39:57.110Z,1.37
2023-03-26T11:45:04.366Z,1.10
2023-03-26T11:50:12.845Z,1.37
2023-03-26T11:55:19.398Z,1.17
2023-03-26T12:00:32.975Z,1.10
2023-03-26T12:05:48.795Z,1.30
2023-03-26T12:11:10.948Z,1.30
2023-03-26T12:16:51.398Z,1.80
2023-03-26T12:22:00.595Z,1.30
2023-03-26T12:27:22.198Z,1.13
2023-03-26T12:32:43.317Z,1.20
2023-03-26T12:37:49.506Z,1.40
2023-03-26T12:44:53.177Z,1.50
2023-03-26T12:48:19.308Z,1.57
2023-03-26T12:53:34.981Z,0.93
2023-03-26T12:58:55.125Z,1.47
2023-03-26T13:04:15.467Z,1.50
2023-03-26T13:09:26.003Z,1.30
2023-03-26T13:14:45.370Z,1.13
2023-03-26T13:19:55.025Z,1.33
2023-03-26T13:25:01.776Z,0.90
2023-03-26T13:30:12.273Z,1.23
2023-03-26T13:35:24.540Z,1.00
2023-03-26T13:40:30.204Z,1.40
2023-03-26T13:45:42.682Z,1.33
2023-03-26T13:50:52.514Z,1.30
2023-03-26T13:55:58.171Z,1.13
2023-03-26T14:01:05.640Z,1.53
2023-03-26T14:06:14.512Z,1.70
2023-03-26T14:11:19.171Z,1.03
2023-03-26T14:16:24.899Z,1.60
2023-03-26T14:21:52.251Z,1.20
2023-03-26T14:27:03.958Z,1.27
2023-03-26T14:32:14.181Z,1.20
2023-03-26T14:37:30.288Z,1.23
2023-03-26T14:42:38.496Z,1.03
2023-03-26T14:47:46.100Z,0.93
2023-03-26T14:52:51.722Z,0.90
2023-03-26T14:58:01.943Z,1.53
2023-03-26T15:03:20.255Z,1.50
2023-03-26T15:08:38.997Z,1.00
2023-03-26T15:13:51.201Z,1.00
2023-03-26T15:19:18.017Z,0.90
2023-03-26T15:24:45.548Z,1.37
2023-03-26T15:30:07.536Z,1.00
2023-03-26T15:35:28.890Z,1.10
2023-03-26T15:46:36.008Z,1.10
2023-03-26T15:51:46.506Z,1.10
2023-03-26T15:56:58.586Z,1.13
2023-03-26T16:02:12.183Z,1.30
2023-03-26T16:07:30.340Z,0.70
2023-03-26T16:12:39.385Z,0.77
2023-03-26T16:17:59.167Z,1.10
2023-03-26T16:23:06.483Z,0.90
2023-03-26T16:28:21.523Z,0.90
2023-03-26T16:39:42.484Z,0.60
2023-03-26T16:50:19.937Z,1.10
2023-03-26T16:55:31.572Z,1.10
2023-03-26T17:00:48.974Z,1.00
2023-03-26T17:06:15.124Z,1.37
2023-03-26T17:11:24.672Z,1.30
2023-03-26T17:16:49.269Z,1.10
2023-03-26T17:28:36.441Z,1.30
2023-03-26T17:33:43.390Z,1.00
2023-03-26T17:39:11.893Z,0.83
2023-03-26T17:44:44.624Z,0.60
2023-03-26T17:49:59.724Z,0.70
2023-03-26T17:55:13.776Z,0.93
2023-03-26T18:00:39.875Z,0.90
2023-03-26T18:05:52.634Z,0.93
2023-03-26T18:11:12.704Z,1.13
2023-03-26T18:16:18.442Z,0.83
2023-03-26T18:21:24.175Z,0.90
2023-03-26T18:26:33.582Z,1.00
2023-03-26T18:31:41.923Z,1.33
2023-03-26T18:36:46.287Z,1.40
2023-03-26T18:41:50.108Z,1.50
2023-03-26T18:46:55.780Z,1.30
2023-03-26T18:51:59.573Z,1.20
2023-03-26T18:57:15.474Z,1.07
2023-03-26T19:02:22.186Z,1.40
2023-03-26T19:07:26.980Z,1.27
2023-03-26T19:12:32.609Z,1.40
2023-03-26T19:17:40.705Z,1.80
2023-03-26T19:22:44.844Z,1.40
2023-03-26T19:27:48.131Z,1.53
2023-03-26T19:32:55.150Z,1.80
2023-03-26T19:38:24.306Z,1.17
2023-03-26T19:43:28.226Z,1.10
2023-03-26T19:48:45.251Z,2.27
2023-03-26T19:53:53.035Z,1.33
2023-03-26T19:58:57.496Z,1.70
2023-03-26T20:04:04.207Z,1.40
2023-03-26T20:09:07.847Z,1.20
2023-03-26T20:14:15.268Z,1.30
2023-03-26T20:19:20.780Z,1.33
2023-03-26T20:24:25.212Z,1.37
2023-03-26T20:29:31.066Z,1.37
2023-03-26T20:34:36.010Z,1.37
2023-03-26T20:39:39.709Z,1.30
2023-03-26T20:44:43.847Z,1.20
2023-03-26T20:49:49.630Z,1.20
2023-03-26T20:54:53.700Z,1.30
2023-03-26T20:59:57.113Z,1.03
2023-03-26T21:05:02.327Z,4.90
2023-03-26T21:10:06.218Z,1.47
2023-03-26T21:15:22.365Z,1.40
2023-03-26T21:20:29.048Z,1.50
2023-03-26T21:25:36.220Z,1.80
2023-03-26T21:30:40.135Z,1.57
2023-03-26T21:35:51.909Z,1.27
2023-03-26T21:40:58.845Z,1.10
2023-03-26T21:46:02.649Z,1.23
2023-03-26T21:51:08.255Z,1.20
2023-03-26T21:56:18.942Z,1.20
2023-03-26T22:01:29.117Z,1.10
2023-03-26T22:06:38.815Z,2.03
2023-03-26T22:11:42.641Z,1.47
2023-03-26T22:16:46.184Z,1.10
2023-03-26T22:21:52.013Z,1.00
2023-03-26T22:26:55.555Z,0.90
2023-03-26T22:31:58.862Z,1.00
2023-03-26T22:37:05.723Z,1.07
2023-03-26T22:42:08.986Z,1.10
2023-03-26T22:47:13.591Z,1.00
2023-03-26T22:52:18.429Z,1.30
2023-03-26T22:57:23.083Z,0.93
2023-03-26T23:02:26.445Z,1.20
2023-03-26T23:07:32.695Z,0.87
2023-03-26T23:12:36.302Z,1.00
2023-03-26T23:17:39.783Z,1.00
2023-03-26T23:22:45.065Z,1.20
2023-03-26T23:27:50.809Z,1.40
2023-03-26T23:32:54.328Z,1.00
2023-03-26T23:38:02.318Z,1.10
2023-03-26T23:43:05.935Z,1.00
2023-03-26T23:48:09.707Z,1.10
2023-03-26T23:53:14.692Z,1.10
2023-03-26T23:58:18.006Z,1.10
